createdAt,value
2022-11-05T00:00:59.924Z,0.00
2022-11-05T00:01:59.997Z,0.00
2022-11-05T00:02:59.913Z,0.00
2022-11-05T00:03:59.956Z,0.00
2022-11-05T00:04:59.927Z,0.00
2022-11-05T00:05:59.891Z,0.00
2022-11-05T00:06:59.891Z,0.00
2022-11-05T00:07:59.914Z,0.00
2022-11-05T00:08:59.878Z,0.00
2022-11-05T00:09:59.866Z,0.00
2022-11-05T00:10:59.873Z,0.00
2022-11-05T00:11:59.854Z,0.00
2022-11-05T00:12:59.839Z,0.00
2022-11-05T00:13:59.851Z,0.00
2022-11-05T00:14:59.837Z,0.00
2022-11-05T00:15:59.818Z,0.00
2022-11-05T00:16:59.836Z,0.00
2022-11-05T00:17:59.822Z,0.00
2022-11-05T00:18:59.818Z,0.00
2022-11-05T00:19:59.829Z,0.00
2022-11-05T00:20:59.793Z,0.00
2022-11-05T00:21:59.789Z,0.00
2022-11-05T00:22:59.789Z,0.00
2022-11-05T00:23:59.778Z,0.00
2022-11-05T00:24:59.791Z,0.00
2022-11-05T00:25:59.773Z,0.00
2022-11-05T00:26:59.773Z,0.00
2022-11-05T00:27:59.750Z,0.00
2022-11-05T00:28:59.761Z,0.00
2022-11-05T00:29:59.749Z,0.00
2022-11-05T00:30:59.735Z,0.00
2022-11-05T00:31:59.740Z,0.00
2022-11-05T00:32:59.726Z,0.00
2022-11-05T00:33:59.717Z,0.00
2022-11-05T00:34:59.745Z,0.00
2022-11-05T00:35:59.689Z,0.00
2022-11-05T00:37:00.697Z,0.00
2022-11-05T00:37:59.701Z,0.00
2022-11-05T00:38:59.680Z,0.00
2022-11-05T00:39:59.681Z,0.00
2022-11-05T00:40:59.673Z,0.00
2022-11-05T00:41:59.653Z,0.00
2022-11-05T00:42:59.654Z,0.00
2022-11-05T00:43:59.673Z,0.00
2022-11-05T00:44:59.650Z,0.00
2022-11-05T00:45:59.633Z,0.00
2022-11-05T00:47:00.054Z,0.00
2022-11-05T00:48:00.608Z,0.00
2022-11-05T00:48:59.611Z,0.00
2022-11-05T00:49:59.639Z,0.00
2022-11-05T00:50:59.613Z,0.00
2022-11-05T00:51:59.582Z,0.00
2022-11-05T00:52:59.805Z,0.00
2022-11-05T00:53:59.636Z,0.00
2022-11-05T00:54:59.568Z,0.00
2022-11-05T00:55:59.585Z,0.00
2022-11-05T00:57:04.458Z,0.00
2022-11-05T00:58:01.581Z,0.00
2022-11-05T00:58:59.562Z,0.00
2022-11-05T00:59:59.541Z,0.00
2022-11-05T01:00:59.538Z,0.00
2022-11-05T01:01:59.658Z,0.00
2022-11-05T01:02:59.517Z,0.00
2022-11-05T01:03:59.514Z,0.00
2022-11-05T01:04:59.523Z,0.00
2022-11-05T01:05:59.526Z,0.00
2022-11-05T01:06:59.500Z,0.00
2022-11-05T01:07:59.530Z,0.00
2022-11-05T01:08:59.487Z,0.00
2022-11-05T01:09:59.498Z,0.00
2022-11-05T01:10:59.498Z,0.00
2022-11-05T01:11:59.479Z,0.00
2022-11-05T01:12:59.455Z,0.00
2022-11-05T01:13:59.510Z,0.00
2022-11-05T01:14:59.459Z,0.00
2022-11-05T01:15:59.448Z,0.00
2022-11-05T01:16:59.517Z,0.00
2022-11-05T01:17:59.421Z,0.00
2022-11-05T01:18:59.427Z,0.00
2022-11-05T01:19:59.437Z,0.00
2022-11-05T01:20:59.407Z,0.00
2022-11-05T01:21:59.417Z,0.00
2022-11-05T01:22:59.402Z,0.00
2022-11-05T01:23:59.390Z,0.00
2022-11-05T01:24:59.398Z,0.00
2022-11-05T01:25:59.378Z,0.00
2022-11-05T01:26:59.410Z,0.00
2022-11-05T01:27:59.378Z,0.00
2022-11-05T01:28:59.404Z,0.00
2022-11-05T01:29:59.422Z,0.00
2022-11-05T01:30:59.338Z,0.00
2022-11-05T01:31:59.353Z,0.00
2022-11-05T01:32:59.342Z,0.00
2022-11-05T01:33:59.317Z,0.00
2022-11-05T01:34:59.322Z,0.00
2022-11-05T01:35:59.318Z,0.00
2022-11-05T01:36:59.318Z,0.00
2022-11-05T01:37:59.307Z,0.00
2022-11-05T01:38:59.306Z,0.00
2022-11-05T01:39:59.314Z,0.00
2022-11-05T01:40:59.286Z,0.00
2022-11-05T01:41:59.305Z,0.00
2022-11-05T01:42:59.274Z,0.00
2022-11-05T01:43:59.281Z,0.00
2022-11-05T01:44:59.309Z,0.00
2022-11-05T01:46:00.263Z,0.00
2022-11-05T01:46:59.271Z,0.00
2022-11-05T01:47:59.257Z,0.00
2022-11-05T01:49:03.152Z,0.00
2022-11-05T01:50:00.230Z,0.00
2022-11-05T01:50:59.242Z,0.00
2022-11-05T01:51:59.254Z,0.00
2022-11-05T01:52:59.215Z,0.00
2022-11-05T01:53:59.220Z,0.00
2022-11-05T01:54:59.203Z,0.00
2022-11-05T01:55:59.208Z,0.00
2022-11-05T01:56:59.220Z,0.00
2022-11-05T01:57:59.203Z,0.00
2022-11-05T01:58:59.184Z,0.00
2022-11-05T01:59:59.192Z,0.00
2022-11-05T02:00:59.172Z,0.00
2022-11-05T02:01:59.314Z,0.00
2022-11-05T02:02:59.223Z,0.00
2022-11-05T02:03:59.139Z,0.00
2022-11-05T02:04:59.141Z,0.00
2022-11-05T02:05:59.165Z,0.00
2022-11-05T02:06:59.128Z,0.00
2022-11-05T02:07:59.139Z,0.00
2022-11-05T02:08:59.133Z,0.00
2022-11-05T02:09:59.111Z,0.00
2022-11-05T02:10:59.117Z,0.00
2022-11-05T02:11:59.109Z,0.00
2022-11-05T02:12:59.095Z,0.00
2022-11-05T02:13:59.103Z,0.00
2022-11-05T02:14:59.095Z,0.00
2022-11-05T02:15:59.079Z,0.00
2022-11-05T02:16:59.070Z,0.00
2022-11-05T02:17:59.087Z,0.00
2022-11-05T02:18:59.071Z,0.00
2022-11-05T02:19:59.043Z,0.00
2022-11-05T02:20:59.082Z,0.00
2022-11-05T02:21:59.035Z,0.00
2022-11-05T02:22:59.028Z,0.00
2022-11-05T02:23:59.043Z,0.00
2022-11-05T02:24:59.016Z,0.00
2022-11-05T02:26:00.008Z,0.00
2022-11-05T02:26:59.011Z,0.00
2022-11-05T02:27:58.992Z,0.00
2022-11-05T02:28:59.014Z,0.00
2022-11-05T02:29:59.000Z,0.00
2022-11-05T02:30:58.980Z,0.00
2022-11-05T02:31:58.959Z,0.00
2022-11-05T02:33:00.036Z,0.00
2022-11-05T02:33:58.992Z,0.00
2022-11-05T02:34:58.955Z,0.00
2022-11-05T02:35:58.951Z,0.00
2022-11-05T02:36:58.940Z,0.00
2022-11-05T02:37:58.936Z,0.00
2022-11-05T02:38:58.943Z,0.00
2022-11-05T02:39:58.943Z,0.00
2022-11-05T02:40:58.928Z,0.00
2022-11-05T02:42:03.627Z,0.00
2022-11-05T02:43:00.920Z,0.00
2022-11-05T02:43:58.899Z,0.00
2022-11-05T02:44:58.923Z,0.00
2022-11-05T02:45:58.890Z,0.00
2022-11-05T02:46:58.884Z,0.00
2022-11-05T02:47:58.886Z,0.00
2022-11-05T02:48:58.871Z,0.00
2022-11-05T02:49:58.887Z,0.00
2022-11-05T02:50:58.866Z,0.00
2022-11-05T02:51:58.851Z,0.00
2022-11-05T02:52:58.863Z,0.00
2022-11-05T02:53:58.843Z,0.00
2022-11-05T02:54:58.840Z,0.00
2022-11-05T02:55:58.852Z,0.00
2022-11-05T02:56:58.907Z,0.00
2022-11-05T02:57:58.811Z,0.00
2022-11-05T02:58:58.807Z,0.00
2022-11-05T02:59:58.825Z,0.00
2022-11-05T03:00:58.795Z,0.00
2022-11-05T03:01:58.901Z,0.00
2022-11-05T03:02:58.846Z,0.00
2022-11-05T03:03:58.827Z,0.00
2022-11-05T03:04:58.775Z,0.00
2022-11-05T03:05:58.807Z,0.00
2022-11-05T03:06:58.759Z,0.00
2022-11-05T03:07:58.749Z,0.00
2022-11-05T03:08:58.761Z,0.00
2022-11-05T03:09:58.742Z,0.00
2022-11-05T03:10:58.750Z,0.00
2022-11-05T03:11:58.773Z,0.00
2022-11-05T03:12:58.710Z,0.00
2022-11-05T03:13:58.699Z,0.00
2022-11-05T03:14:58.711Z,0.00
2022-11-05T03:15:58.698Z,0.00
2022-11-05T03:16:58.718Z,0.00
2022-11-05T03:17:58.840Z,0.00
2022-11-05T03:18:58.671Z,0.00
2022-11-05T03:19:58.667Z,0.00
2022-11-05T03:20:58.667Z,0.00
2022-11-05T03:21:58.658Z,0.00
2022-11-05T03:22:58.646Z,0.00
2022-11-05T03:23:58.652Z,0.00
2022-11-05T03:24:58.635Z,0.00
2022-11-05T03:25:58.629Z,0.00
2022-11-05T03:26:58.670Z,0.00
2022-11-05T03:27:58.624Z,0.00
2022-11-05T03:28:58.611Z,0.00
2022-11-05T03:29:58.614Z,0.00
2022-11-05T03:30:58.601Z,0.00
2022-11-05T03:31:58.596Z,0.00
2022-11-05T03:32:58.589Z,0.00
2022-11-05T03:33:58.576Z,0.00
2022-11-05T03:34:58.578Z,0.00
2022-11-05T03:35:58.586Z,0.00
2022-11-05T03:36:58.604Z,0.00
2022-11-05T03:37:58.573Z,0.00
2022-11-05T03:38:58.585Z,0.00
2022-11-05T03:39:58.541Z,0.00
2022-11-05T03:40:58.535Z,0.00
2022-11-05T03:41:58.551Z,0.00
2022-11-05T03:42:58.522Z,0.00
2022-11-05T03:43:58.527Z,0.00
2022-11-05T03:44:58.538Z,0.00
2022-11-05T03:45:58.514Z,0.00
2022-11-05T03:46:58.494Z,0.00
2022-11-05T03:47:58.518Z,0.00
2022-11-05T03:48:58.536Z,0.00
2022-11-05T03:49:58.500Z,0.00
2022-11-05T03:50:58.474Z,0.00
2022-11-05T03:51:58.483Z,0.00
2022-11-05T03:52:58.470Z,0.00
2022-11-05T03:53:58.487Z,0.00
2022-11-05T03:54:58.462Z,0.00
2022-11-05T03:55:59.289Z,0.00
2022-11-05T03:56:58.443Z,0.00
2022-11-05T03:57:58.456Z,0.00
2022-11-05T03:58:59.265Z,0.00
2022-11-05T03:59:59.471Z,0.00
2022-11-05T04:00:58.414Z,0.00
2022-11-05T04:01:58.542Z,0.00
2022-11-05T04:02:58.617Z,0.00
2022-11-05T04:03:58.395Z,0.00
2022-11-05T04:04:58.375Z,0.00
2022-11-05T04:05:58.463Z,0.00
2022-11-05T04:06:58.369Z,0.00
2022-11-05T04:07:58.391Z,0.00
2022-11-05T04:08:58.350Z,0.00
2022-11-05T04:09:58.371Z,0.00
2022-11-05T04:10:58.350Z,0.00
2022-11-05T04:11:58.338Z,0.00
2022-11-05T04:12:58.496Z,0.00
2022-11-05T04:13:58.335Z,0.00
2022-11-05T04:14:58.324Z,0.00
2022-11-05T04:15:58.310Z,0.00
2022-11-05T04:16:58.311Z,0.00
2022-11-05T04:17:58.323Z,0.00
2022-11-05T04:18:58.290Z,0.00
2022-11-05T04:19:58.290Z,0.00
2022-11-05T04:20:58.283Z,0.00
2022-11-05T04:21:58.286Z,0.00
2022-11-05T04:22:58.327Z,0.00
2022-11-05T04:23:58.270Z,0.00
2022-11-05T04:24:58.255Z,0.00
2022-11-05T04:25:58.268Z,0.00
2022-11-05T04:26:58.246Z,0.00
2022-11-05T04:27:58.267Z,0.00
2022-11-05T04:28:59.756Z,0.00
2022-11-05T04:29:58.222Z,0.00
2022-11-05T04:30:58.238Z,0.00
2022-11-05T04:31:58.243Z,0.00
2022-11-05T04:32:58.302Z,0.00
2022-11-05T04:33:58.230Z,0.00
2022-11-05T04:34:58.198Z,0.00
2022-11-05T04:35:58.191Z,0.00
2022-11-05T04:36:58.206Z,0.00
2022-11-05T04:37:58.182Z,0.00
2022-11-05T04:38:58.198Z,0.00
2022-11-05T04:39:58.182Z,0.00
2022-11-05T04:40:58.170Z,0.00
2022-11-05T04:41:58.162Z,0.00
2022-11-05T04:42:58.170Z,0.00
2022-11-05T04:43:58.152Z,0.00
2022-11-05T04:44:58.161Z,0.00
2022-11-05T04:45:58.153Z,0.00
2022-11-05T04:46:58.175Z,0.00
2022-11-05T04:47:58.134Z,0.00
2022-11-05T04:48:58.157Z,0.00
2022-11-05T04:49:58.122Z,0.00
2022-11-05T04:50:58.162Z,0.00
2022-11-05T04:51:58.103Z,0.00
2022-11-05T04:52:58.112Z,0.00
2022-11-05T04:53:58.091Z,0.00
2022-11-05T04:54:58.110Z,0.00
2022-11-05T04:55:58.091Z,0.00
2022-11-05T04:56:58.065Z,0.00
2022-11-05T04:57:58.070Z,0.00
2022-11-05T04:58:58.079Z,0.00
2022-11-05T04:59:58.065Z,0.00
2022-11-05T05:00:58.116Z,0.00
2022-11-05T05:01:58.090Z,0.00
2022-11-05T05:02:58.058Z,0.00
2022-11-05T05:03:58.075Z,0.00
2022-11-05T05:04:58.051Z,0.00
2022-11-05T05:06:03.385Z,0.00
2022-11-05T05:07:00.033Z,0.00
2022-11-05T05:07:58.006Z,0.00
2022-11-05T05:08:58.033Z,0.00
2022-11-05T05:09:58.017Z,0.00
2022-11-05T05:10:58.041Z,0.00
2022-11-05T05:11:58.014Z,0.00
2022-11-05T05:12:57.997Z,0.00
2022-11-05T05:13:57.973Z,0.00
2022-11-05T05:14:57.975Z,0.00
2022-11-05T05:15:57.989Z,0.00
2022-11-05T05:16:57.953Z,0.00
2022-11-05T05:17:57.951Z,0.00
2022-11-05T05:18:57.959Z,0.00
2022-11-05T05:19:57.932Z,0.00
2022-11-05T05:20:57.949Z,0.00
2022-11-05T05:21:57.955Z,0.00
2022-11-05T05:22:57.943Z,0.00
2022-11-05T05:23:57.957Z,0.00
2022-11-05T05:24:57.928Z,0.00
2022-11-05T05:25:57.921Z,0.00
2022-11-05T05:26:57.900Z,0.00
2022-11-05T05:27:57.903Z,0.00
2022-11-05T05:28:57.884Z,0.00
2022-11-05T05:29:57.872Z,0.00
2022-11-05T05:30:58.915Z,0.00
2022-11-05T05:31:58.900Z,0.00
2022-11-05T05:32:57.883Z,0.00
2022-11-05T05:33:58.440Z,0.00
2022-11-05T05:34:57.852Z,0.00
2022-11-05T05:35:57.884Z,0.00
2022-11-05T05:36:57.832Z,0.00
2022-11-05T05:37:57.850Z,0.00
2022-11-05T05:38:57.832Z,0.00
2022-11-05T05:39:57.853Z,0.00
2022-11-05T05:40:57.815Z,0.00
2022-11-05T05:41:57.869Z,0.00
2022-11-05T05:42:57.803Z,0.00
2022-11-05T05:43:57.807Z,0.00
2022-11-05T05:44:57.795Z,0.00
2022-11-05T05:45:57.784Z,0.00
2022-11-05T05:46:57.777Z,0.00
2022-11-05T05:47:57.805Z,0.00
2022-11-05T05:48:57.776Z,0.00
2022-11-05T05:49:57.768Z,0.00
2022-11-05T05:50:58.485Z,0.00
2022-11-05T05:51:57.766Z,0.00
2022-11-05T05:52:57.744Z,0.00
2022-11-05T05:53:57.759Z,0.00
2022-11-05T05:54:57.728Z,0.00
2022-11-05T05:55:57.720Z,0.00
2022-11-05T05:56:57.725Z,0.00
2022-11-05T05:57:57.703Z,0.00
2022-11-05T05:58:57.715Z,0.00
2022-11-05T05:59:58.484Z,0.00
2022-11-05T06:00:57.693Z,0.00
2022-11-05T06:01:57.763Z,0.00
2022-11-05T06:02:57.737Z,0.00
2022-11-05T06:03:57.697Z,0.00
2022-11-05T06:04:57.659Z,0.00
2022-11-05T06:05:57.693Z,0.00
2022-11-05T06:06:57.665Z,0.00
2022-11-05T06:07:57.655Z,0.00
2022-11-05T06:08:57.696Z,0.00
2022-11-05T06:09:57.630Z,0.00
2022-11-05T06:10:57.649Z,0.00
2022-11-05T06:11:57.637Z,0.00
2022-11-05T06:12:57.627Z,0.00
2022-11-05T06:13:57.608Z,5.62
2022-11-05T06:14:57.620Z,5.62
2022-11-05T06:15:57.592Z,5.62
2022-11-05T06:16:57.591Z,5.62
2022-11-05T06:17:57.604Z,5.62
2022-11-05T06:18:57.561Z,5.62
2022-11-05T06:19:57.558Z,5.62
2022-11-05T06:20:57.572Z,11.25
2022-11-05T06:21:57.567Z,11.25
2022-11-05T06:22:57.579Z,11.25
2022-11-05T06:23:57.547Z,11.25
2022-11-05T06:24:57.536Z,11.25
2022-11-05T06:25:57.519Z,16.88
2022-11-05T06:26:58.722Z,16.88
2022-11-05T06:27:57.546Z,16.88
2022-11-05T06:28:57.521Z,16.88
2022-11-05T06:29:57.588Z,16.88
2022-11-05T06:30:57.495Z,22.50
2022-11-05T06:31:57.495Z,22.50
2022-11-05T06:32:57.524Z,22.50
2022-11-05T06:33:57.476Z,22.50
2022-11-05T06:34:57.467Z,28.12
2022-11-05T06:35:57.475Z,28.12
2022-11-05T06:36:57.476Z,28.12
2022-11-05T06:37:57.460Z,33.75
2022-11-05T06:38:57.447Z,33.75
2022-11-05T06:39:57.459Z,33.75
2022-11-05T06:40:57.446Z,39.38
2022-11-05T06:42:17.137Z,39.38
2022-11-05T06:42:59.940Z,39.38
2022-11-05T06:43:57.425Z,45.00
2022-11-05T06:44:57.413Z,50.62
2022-11-05T06:45:57.401Z,50.62
2022-11-05T06:46:57.393Z,56.25
2022-11-05T06:47:57.417Z,56.25
2022-11-05T06:48:57.368Z,61.88
2022-11-05T06:49:57.389Z,67.50
2022-11-05T06:50:57.372Z,67.50
2022-11-05T06:51:57.381Z,73.12
2022-11-05T06:52:57.357Z,73.12
2022-11-05T06:53:57.345Z,78.75
2022-11-05T06:54:57.361Z,78.75
2022-11-05T06:55:57.342Z,84.38
2022-11-05T06:56:57.336Z,84.38
2022-11-05T06:57:57.348Z,90.00
2022-11-05T06:58:57.329Z,90.00
2022-11-05T07:00:02.300Z,95.62
2022-11-05T07:00:59.342Z,101.25
2022-11-05T07:01:57.406Z,106.88
2022-11-05T07:02:57.316Z,106.88
2022-11-05T07:03:57.288Z,112.50
2022-11-05T07:04:57.267Z,118.12
2022-11-05T07:05:57.285Z,123.75
2022-11-05T07:06:57.265Z,151.88
2022-11-05T07:07:57.277Z,196.88
2022-11-05T07:08:57.296Z,241.88
2022-11-05T07:09:57.260Z,247.50
2022-11-05T07:10:57.239Z,208.12
2022-11-05T07:11:57.226Z,157.50
2022-11-05T07:12:57.221Z,140.62
2022-11-05T07:13:57.249Z,140.62
2022-11-05T07:14:57.284Z,129.38
2022-11-05T07:15:57.218Z,135.00
2022-11-05T07:16:57.201Z,135.00
2022-11-05T07:17:57.193Z,135.00
2022-11-05T07:18:57.218Z,135.00
2022-11-05T07:19:57.192Z,135.00
2022-11-05T07:20:57.178Z,146.25
2022-11-05T07:21:57.175Z,180.00
2022-11-05T07:22:57.165Z,450.00
2022-11-05T07:23:57.182Z,174.38
2022-11-05T07:24:57.173Z,208.12
2022-11-05T07:25:57.145Z,343.12
2022-11-05T07:26:57.138Z,450.00
2022-11-05T07:27:57.128Z,489.38
2022-11-05T07:28:57.185Z,495.00
2022-11-05T07:29:57.121Z,607.50
2022-11-05T07:30:57.115Z,646.88
2022-11-05T07:31:57.114Z,601.88
2022-11-05T07:32:57.102Z,562.50
2022-11-05T07:33:57.121Z,573.75
2022-11-05T07:34:57.094Z,714.38
2022-11-05T07:35:57.076Z,753.75
2022-11-05T07:36:57.120Z,793.12
2022-11-05T07:37:57.071Z,855.00
2022-11-05T07:39:00.306Z,838.12
2022-11-05T07:39:58.092Z,798.75
2022-11-05T07:40:57.049Z,736.88
2022-11-05T07:41:57.046Z,781.88
2022-11-05T07:42:57.069Z,916.88
2022-11-05T07:43:57.034Z,995.62
2022-11-05T07:44:57.065Z,1040.62
2022-11-05T07:45:57.043Z,956.25
2022-11-05T07:46:57.020Z,961.88
2022-11-05T07:47:57.018Z,506.25
2022-11-05T07:48:57.035Z,517.50
2022-11-05T07:49:57.003Z,534.38
2022-11-05T07:50:56.998Z,489.38
2022-11-05T07:51:56.991Z,309.38
2022-11-05T07:52:57.003Z,275.62
2022-11-05T07:53:56.967Z,326.25
2022-11-05T07:54:56.983Z,444.38
2022-11-05T07:55:57.096Z,573.75
2022-11-05T07:56:56.945Z,646.88
2022-11-05T07:57:56.946Z,596.25
2022-11-05T07:58:56.943Z,635.62
2022-11-05T07:59:56.937Z,793.12
2022-11-05T08:00:57.023Z,1046.25
2022-11-05T08:01:57.100Z,1226.25
2022-11-05T08:03:00.820Z,1130.62
2022-11-05T08:03:57.913Z,894.38
2022-11-05T08:04:56.915Z,1012.50
2022-11-05T08:05:56.894Z,1035.00
2022-11-05T08:06:56.887Z,787.50
2022-11-05T08:07:56.888Z,781.88
2022-11-05T08:08:57.822Z,860.62
2022-11-05T08:09:56.857Z,742.50
2022-11-05T08:10:56.840Z,1237.50
2022-11-05T08:12:02.451Z,1299.38
2022-11-05T08:12:58.846Z,1260.00
2022-11-05T08:13:56.863Z,1276.88
2022-11-05T08:14:56.828Z,1293.75
2022-11-05T08:15:56.812Z,1321.88
2022-11-05T08:16:57.458Z,1288.12
2022-11-05T08:17:56.810Z,1243.12
2022-11-05T08:18:56.828Z,1361.25
2022-11-05T08:19:56.812Z,1400.62
2022-11-05T08:20:56.790Z,1406.25
2022-11-05T08:21:56.778Z,1366.88
2022-11-05T08:22:56.862Z,1411.88
2022-11-05T08:23:56.777Z,1456.88
2022-11-05T08:25:00.346Z,1479.38
2022-11-05T08:25:57.754Z,1507.50
2022-11-05T08:26:56.742Z,1535.62
2022-11-05T08:27:56.744Z,1625.62
2022-11-05T08:28:56.750Z,1659.38
2022-11-05T08:29:56.728Z,1591.88
2022-11-05T08:30:56.740Z,1665.00
2022-11-05T08:31:56.731Z,1738.12
2022-11-05T08:32:56.728Z,1901.25
2022-11-05T08:34:02.194Z,1794.38
2022-11-05T08:34:58.815Z,1687.50
2022-11-05T08:35:56.691Z,1608.75
2022-11-05T08:36:56.694Z,1794.38
2022-11-05T08:37:56.689Z,1918.12
2022-11-05T08:38:56.670Z,1991.25
2022-11-05T08:39:56.685Z,2086.88
2022-11-05T08:40:56.680Z,1985.62
2022-11-05T08:41:56.664Z,2086.88
2022-11-05T08:42:56.636Z,2131.88
2022-11-05T08:43:56.633Z,2047.50
2022-11-05T08:44:56.657Z,2075.62
2022-11-05T08:45:56.653Z,2137.50
2022-11-05T08:46:56.620Z,2064.38
2022-11-05T08:47:56.627Z,1991.25
2022-11-05T08:48:56.596Z,2210.62
2022-11-05T08:49:56.642Z,2356.88
2022-11-05T08:50:56.612Z,2295.00
2022-11-05T08:51:56.587Z,2255.62
2022-11-05T08:52:56.590Z,2306.25
2022-11-05T08:53:56.679Z,2103.75
2022-11-05T08:54:56.585Z,1963.12
2022-11-05T08:55:56.560Z,2008.12
2022-11-05T08:56:56.590Z,2210.62
2022-11-05T08:57:56.563Z,2205.00
2022-11-05T08:58:56.558Z,2255.62
2022-11-05T08:59:56.529Z,2244.38
2022-11-05T09:01:01.784Z,2205.00
2022-11-05T09:01:58.666Z,2216.25
2022-11-05T09:02:56.528Z,2289.38
2022-11-05T09:03:56.552Z,1957.50
2022-11-05T09:04:56.550Z,2098.12
2022-11-05T09:05:56.526Z,2559.38
2022-11-05T09:06:56.524Z,2176.88
2022-11-05T09:08:00.863Z,2013.75
2022-11-05T09:08:58.496Z,2176.88
2022-11-05T09:09:56.507Z,2390.62
2022-11-05T09:10:56.455Z,2643.75
2022-11-05T09:12:11.923Z,2508.75
2022-11-05T09:12:58.469Z,2311.88
2022-11-05T09:13:56.465Z,2154.38
2022-11-05T09:14:56.449Z,2171.25
2022-11-05T09:15:56.471Z,2525.62
2022-11-05T09:16:56.427Z,2621.25
2022-11-05T09:17:56.422Z,2261.25
2022-11-05T09:18:56.436Z,1856.25
2022-11-05T09:19:56.406Z,2283.75
2022-11-05T09:20:56.446Z,2812.50
2022-11-05T09:21:56.386Z,2621.25
2022-11-05T09:22:56.404Z,2497.50
2022-11-05T09:23:56.394Z,2598.75
2022-11-05T09:24:56.369Z,2790.00
2022-11-05T09:25:56.482Z,2671.88
2022-11-05T09:26:56.358Z,2351.25
2022-11-05T09:27:56.369Z,2385.00
2022-11-05T09:28:56.355Z,2446.88
2022-11-05T09:29:56.351Z,2323.12
2022-11-05T09:30:56.350Z,2587.50
2022-11-05T09:31:56.327Z,2666.25
2022-11-05T09:32:56.338Z,2643.75
2022-11-05T09:33:56.343Z,2553.75
2022-11-05T09:34:56.335Z,2722.50
2022-11-05T09:35:56.323Z,1974.38
2022-11-05T09:36:56.305Z,2143.12
2022-11-05T09:38:00.737Z,3515.62
2022-11-05T09:38:57.304Z,3493.12
2022-11-05T09:39:56.282Z,3155.62
2022-11-05T09:40:56.275Z,3093.75
2022-11-05T09:41:56.316Z,3043.12
2022-11-05T09:42:56.257Z,2683.12
2022-11-05T09:43:56.269Z,2542.50
2022-11-05T09:44:56.233Z,2925.00
2022-11-05T09:45:57.299Z,2925.00
2022-11-05T09:46:56.330Z,2581.88
2022-11-05T09:47:57.031Z,2531.25
2022-11-05T09:48:56.277Z,2863.12
2022-11-05T09:49:56.302Z,2998.12
2022-11-05T09:50:56.398Z,3009.38
2022-11-05T09:51:56.341Z,3082.50
2022-11-05T09:52:56.407Z,3093.75
2022-11-05T09:53:56.287Z,3043.12
2022-11-05T09:54:56.274Z,2986.88
2022-11-05T09:55:56.290Z,3082.50
2022-11-05T09:56:56.228Z,2930.62
2022-11-05T09:57:56.261Z,2700.00
2022-11-05T09:58:56.205Z,2503.12
2022-11-05T09:59:56.305Z,2581.88
2022-11-05T10:00:56.390Z,2806.88
2022-11-05T10:01:56.408Z,2728.12
2022-11-05T10:02:56.294Z,2261.25
2022-11-05T10:03:56.211Z,2435.62
2022-11-05T10:04:56.956Z,2823.75
2022-11-05T10:05:56.222Z,3054.38
2022-11-05T10:06:56.140Z,2919.38
2022-11-05T10:07:56.160Z,3054.38
2022-11-05T10:08:56.245Z,2992.50
2022-11-05T10:09:56.145Z,2784.38
2022-11-05T10:10:56.094Z,2778.75
2022-11-05T10:11:57.041Z,2784.38
2022-11-05T10:12:56.103Z,2806.88
2022-11-05T10:13:56.094Z,2885.62
2022-11-05T10:14:56.135Z,2835.00
2022-11-05T10:15:56.240Z,2542.50
2022-11-05T10:16:57.045Z,2491.88
2022-11-05T10:17:56.089Z,2716.88
2022-11-05T10:18:56.597Z,2851.88
2022-11-05T10:19:56.188Z,2818.12
2022-11-05T10:20:56.084Z,3054.38
2022-11-05T10:22:12.272Z,2958.75
2022-11-05T10:22:58.029Z,2621.25
2022-11-05T10:23:56.058Z,2683.12
2022-11-05T10:24:56.067Z,2835.00
2022-11-05T10:25:56.010Z,3037.50
2022-11-05T10:26:56.010Z,2767.50
2022-11-05T10:27:56.035Z,2581.88
2022-11-05T10:28:56.039Z,2868.75
2022-11-05T10:29:56.099Z,3009.38
2022-11-05T10:30:56.026Z,2913.75
2022-11-05T10:31:55.990Z,2896.88
2022-11-05T10:32:55.986Z,2936.25
2022-11-05T10:33:56.026Z,3363.75
2022-11-05T10:34:56.000Z,2992.50
2022-11-05T10:35:56.011Z,2542.50
2022-11-05T10:36:55.995Z,2846.25
2022-11-05T10:37:55.963Z,2975.62
2022-11-05T10:38:56.474Z,2896.88
2022-11-05T10:39:55.992Z,2908.12
2022-11-05T10:40:55.948Z,2790.00
2022-11-05T10:41:55.950Z,1485.00
2022-11-05T10:42:55.959Z,2818.12
2022-11-05T10:43:55.930Z,3037.50
2022-11-05T10:44:55.922Z,3048.75
2022-11-05T10:45:56.003Z,3065.62
2022-11-05T10:46:55.956Z,2632.50
2022-11-05T10:47:55.907Z,2109.38
2022-11-05T10:48:55.909Z,2368.12
2022-11-05T10:49:55.918Z,2610.00
2022-11-05T10:50:55.910Z,3172.50
2022-11-05T10:51:55.900Z,3504.38
2022-11-05T10:52:56.917Z,4033.12
2022-11-05T10:54:00.506Z,4258.12
2022-11-05T10:54:57.886Z,973.12
2022-11-05T10:55:55.892Z,399.38
2022-11-05T10:56:55.865Z,281.25
2022-11-05T10:57:55.870Z,258.75
2022-11-05T10:58:55.894Z,264.38
2022-11-05T10:59:55.858Z,281.25
2022-11-05T11:00:55.924Z,270.00
2022-11-05T11:01:56.029Z,264.38
2022-11-05T11:02:55.847Z,275.62
2022-11-05T11:03:55.813Z,2497.50
2022-11-05T11:04:55.825Z,275.62
2022-11-05T11:05:55.835Z,258.75
2022-11-05T11:06:55.816Z,2120.62
2022-11-05T11:07:55.820Z,2761.88
2022-11-05T11:08:55.875Z,1895.62
2022-11-05T11:09:55.817Z,2536.88
2022-11-05T11:10:55.826Z,2452.50
2022-11-05T11:14:52.068Z,2795.62
2022-11-05T11:15:53.176Z,2756.25
2022-11-05T11:16:53.232Z,2801.25
2022-11-05T11:17:53.228Z,2593.12
2022-11-05T11:18:53.168Z,2486.25
2022-11-05T11:19:53.157Z,2739.38
2022-11-05T11:20:53.148Z,2756.25
2022-11-05T11:21:53.168Z,2452.50
2022-11-05T11:22:53.153Z,2621.25
2022-11-05T11:23:53.133Z,2688.75
2022-11-05T11:24:53.128Z,2626.88
2022-11-05T11:25:53.119Z,2480.62
2022-11-05T11:26:53.135Z,2013.75
2022-11-05T11:27:53.107Z,2463.75
2022-11-05T11:28:53.101Z,2458.12
2022-11-05T11:29:53.094Z,2317.50
2022-11-05T11:30:53.089Z,2469.38
2022-11-05T11:31:53.093Z,2362.50
2022-11-05T11:32:53.094Z,399.38
2022-11-05T11:33:53.109Z,1068.75
2022-11-05T11:34:53.090Z,2643.75
2022-11-05T11:35:53.073Z,365.62
2022-11-05T11:36:53.053Z,489.38
2022-11-05T11:37:53.077Z,646.88
2022-11-05T11:38:53.072Z,315.00
2022-11-05T11:39:54.069Z,264.38
2022-11-05T11:40:53.054Z,286.88
2022-11-05T11:41:53.036Z,1344.38
2022-11-05T11:42:53.080Z,534.38
2022-11-05T11:43:53.013Z,607.50
2022-11-05T11:44:53.013Z,1327.50
2022-11-05T11:45:53.022Z,1918.12
2022-11-05T11:46:53.001Z,2300.62
2022-11-05T11:47:53.135Z,2368.12
2022-11-05T11:48:52.990Z,2413.12
2022-11-05T11:49:52.976Z,2131.88
2022-11-05T11:50:52.991Z,2266.88
2022-11-05T11:51:52.974Z,1423.12
2022-11-05T11:52:52.966Z,309.38
2022-11-05T11:53:52.977Z,315.00
2022-11-05T11:54:52.949Z,1068.75
2022-11-05T11:55:52.945Z,607.50
2022-11-05T11:56:52.961Z,331.88
2022-11-05T11:57:52.940Z,343.12
2022-11-05T11:58:52.965Z,360.00
2022-11-05T12:00:09.643Z,371.25
2022-11-05T12:00:54.940Z,337.50
2022-11-05T12:01:53.029Z,303.75
2022-11-05T12:02:55.963Z,281.25
2022-11-05T12:03:53.903Z,264.38
2022-11-05T12:04:52.897Z,241.88
2022-11-05T12:05:52.880Z,230.62
2022-11-05T12:06:53.782Z,230.62
2022-11-05T12:07:52.872Z,230.62
2022-11-05T12:08:59.523Z,225.00
2022-11-05T12:09:54.872Z,208.12
2022-11-05T12:10:52.850Z,191.25
2022-11-05T12:11:52.857Z,180.00
2022-11-05T12:12:52.878Z,180.00
2022-11-05T12:13:52.841Z,196.88
2022-11-05T12:14:52.873Z,196.88
2022-11-05T12:15:52.838Z,202.50
2022-11-05T12:16:52.823Z,219.38
2022-11-05T12:17:52.833Z,264.38
2022-11-05T12:18:52.817Z,253.12
2022-11-05T12:19:52.827Z,275.62
2022-11-05T12:20:57.834Z,343.12
2022-11-05T12:21:54.786Z,348.75
2022-11-05T12:22:52.809Z,382.50
2022-11-05T12:23:52.783Z,337.50
2022-11-05T12:24:52.776Z,320.62
2022-11-05T12:25:52.758Z,292.50
2022-11-05T12:26:52.779Z,270.00
2022-11-05T12:27:53.760Z,832.50
2022-11-05T12:29:17.233Z,708.75
2022-11-05T12:29:54.743Z,2823.75
2022-11-05T12:30:52.743Z,2283.75
2022-11-05T12:31:52.742Z,900.00
2022-11-05T12:32:52.776Z,500.62
2022-11-05T12:33:52.702Z,748.12
2022-11-05T12:34:52.710Z,2317.50
2022-11-05T12:35:57.561Z,2261.25
2022-11-05T12:36:54.710Z,2244.38
2022-11-05T12:37:52.697Z,2233.12
2022-11-05T12:38:52.682Z,2131.88
2022-11-05T12:39:52.734Z,1833.75
2022-11-05T12:40:52.664Z,1721.25
2022-11-05T12:41:53.771Z,1726.88
2022-11-05T12:42:52.690Z,1777.50
2022-11-05T12:43:52.641Z,2120.62
2022-11-05T12:44:52.640Z,2306.25
2022-11-05T12:45:52.629Z,2323.12
2022-11-05T12:46:52.658Z,2328.75
2022-11-05T12:47:52.623Z,2323.12
2022-11-05T12:48:52.674Z,1951.88
2022-11-05T12:49:52.607Z,1580.62